sensor_id;sensor_type;location;lat;lon;timestamp;P1;durP1;ratioP1;P2;durP2;ratioP2
6547;SDS011;3307;52.416;16.862;2023-01-29T00:01:51;14.80;;;11.07;;
6547;SDS011;3307;52.416;16.862;2023-01-29T00:04:16;17.20;;;10.03;;
6547;SDS011;3307;52.416;16.862;2023-01-29T00:06:42;14.03;;;10.07;;
6547;SDS011;3307;52.416;16.862;2023-01-29T00:09:08;14.73;;;9.20;;
6547;SDS011;3307;52.416;16.862;2023-01-29T00:11:34;13.70;;;9.30;;
6547;SDS011;3307;52.416;16.862;2023-01-29T00:13:59;10.83;;;9.37;;
6547;SDS011;3307;52.416;16.862;2023-01-29T00:16:25;12.90;;;9.10;;
6547;SDS011;3307;52.416;16.862;2023-01-29T00:18:50;16.10;;;10.30;;
6547;SDS011;3307;52.416;16.862;2023-01-29T00:21:16;12.60;;;9.43;;
6547;SDS011;3307;52.416;16.862;2023-01-29T00:23:43;13.15;;;10.30;;
6547;SDS011;3307;52.416;16.862;2023-01-29T00:26:09;14.83;;;10.03;;
6547;SDS011;3307;52.416;16.862;2023-01-29T00:28:34;12.67;;;8.53;;
6547;SDS011;3307;52.416;16.862;2023-01-29T00:31:07;12.83;;;9.07;;
6547;SDS011;3307;52.416;16.862;2023-01-29T00:33:33;15.55;;;9.45;;
6547;SDS011;3307;52.416;16.862;2023-01-29T00:36:01;13.73;;;10.53;;
6547;SDS011;3307;52.416;16.862;2023-01-29T00:38:30;13.82;;;10.65;;
6547;SDS011;3307;52.416;16.862;2023-01-29T00:40:55;15.57;;;10.50;;
6547;SDS011;3307;52.416;16.862;2023-01-29T00:43:39;17.30;;;11.77;;
6547;SDS011;3307;52.416;16.862;2023-01-29T00:46:23;17.60;;;10.48;;
6547;SDS011;3307;52.416;16.862;2023-01-29T00:48:48;16.13;;;10.87;;
6547;SDS011;3307;52.416;16.862;2023-01-29T00:51:14;17.83;;;11.03;;
6547;SDS011;3307;52.416;16.862;2023-01-29T00:53:39;12.87;;;10.00;;
6547;SDS011;3307;52.416;16.862;2023-01-29T00:56:05;13.10;;;9.73;;
6547;SDS011;3307;52.416;16.862;2023-01-29T00:58:30;12.87;;;10.10;;
6547;SDS011;3307;52.416;16.862;2023-01-29T01:00:58;12.48;;;9.40;;
6547;SDS011;3307;52.416;16.862;2023-01-29T01:03:25;15.02;;;12.32;;
6547;SDS011;3307;52.416;16.862;2023-01-29T01:06:00;20.13;;;11.73;;
6547;SDS011;3307;52.416;16.862;2023-01-29T01:08:27;16.27;;;11.80;;
6547;SDS011;3307;52.416;16.862;2023-01-29T01:11:11;11.52;;;9.50;;
6547;SDS011;3307;52.416;16.862;2023-01-29T01:13:36;14.07;;;10.70;;
6547;SDS011;3307;52.416;16.862;2023-01-29T01:16:07;16.00;;;11.40;;
6547;SDS011;3307;52.416;16.862;2023-01-29T01:18:33;14.93;;;10.27;;
6547;SDS011;3307;52.416;16.862;2023-01-29T01:20:59;13.80;;;9.50;;
6547;SDS011;3307;52.416;16.862;2023-01-29T01:23:24;13.03;;;10.00;;
6547;SDS011;3307;52.416;16.862;2023-01-29T01:25:50;11.63;;;9.53;;
6547;SDS011;3307;52.416;16.862;2023-01-29T01:28:15;14.17;;;10.07;;
6547;SDS011;3307;52.416;16.862;2023-01-29T01:30:41;17.70;;;10.37;;
6547;SDS011;3307;52.416;16.862;2023-01-29T01:33:06;15.13;;;10.20;;
6547;SDS011;3307;52.416;16.862;2023-01-29T01:35:32;12.87;;;10.70;;
6547;SDS011;3307;52.416;16.862;2023-01-29T01:37:57;13.17;;;8.87;;
6547;SDS011;3307;52.416;16.862;2023-01-29T01:40:23;15.83;;;10.67;;
6547;SDS011;3307;52.416;16.862;2023-01-29T01:42:53;14.73;;;10.35;;
6547;SDS011;3307;52.416;16.862;2023-01-29T01:45:31;11.65;;;8.95;;
6547;SDS011;3307;52.416;16.862;2023-01-29T01:50:40;14.25;;;10.77;;
6547;SDS011;3307;52.416;16.862;2023-01-29T01:53:08;13.95;;;9.68;;
6547;SDS011;3307;52.416;16.862;2023-01-29T01:55:38;12.45;;;10.27;;
6547;SDS011;3307;52.416;16.862;2023-01-29T01:58:09;14.02;;;10.27;;
6547;SDS011;3307;52.416;16.862;2023-01-29T02:00:37;13.23;;;10.73;;
6547;SDS011;3307;52.416;16.862;2023-01-29T02:03:03;17.38;;;10.40;;
6547;SDS011;3307;52.416;16.862;2023-01-29T02:05:48;11.40;;;9.32;;
6547;SDS011;3307;52.416;16.862;2023-01-29T02:11:44;11.27;;;9.00;;
6547;SDS011;3307;52.416;16.862;2023-01-29T02:14:10;13.53;;;10.67;;
6547;SDS011;3307;52.416;16.862;2023-01-29T02:16:36;13.57;;;9.38;;
6547;SDS011;3307;52.416;16.862;2023-01-29T02:19:02;13.80;;;10.30;;
6547;SDS011;3307;52.416;16.862;2023-01-29T02:21:42;15.20;;;9.88;;
6547;SDS011;3307;52.416;16.862;2023-01-29T02:27:13;15.75;;;10.57;;
6547;SDS011;3307;52.416;16.862;2023-01-29T02:32:22;14.32;;;11.15;;
6547;SDS011;3307;52.416;16.862;2023-01-29T02:35:05;14.50;;;9.55;;
6547;SDS011;3307;52.416;16.862;2023-01-29T02:40:43;11.10;;;9.23;;
6547;SDS011;3307;52.416;16.862;2023-01-29T02:48:38;18.05;;;10.45;;
6547;SDS011;3307;52.416;16.862;2023-01-29T02:51:23;11.60;;;8.43;;
6547;SDS011;3307;52.416;16.862;2023-01-29T02:56:53;12.35;;;8.75;;
6547;SDS011;3307;52.416;16.862;2023-01-29T02:59:24;12.88;;;8.43;;
6547;SDS011;3307;52.416;16.862;2023-01-29T03:01:54;11.07;;;8.68;;
6547;SDS011;3307;52.416;16.862;2023-01-29T03:04:27;9.55;;;8.27;;
6547;SDS011;3307;52.416;16.862;2023-01-29T03:06:56;10.40;;;7.70;;
6547;SDS011;3307;52.416;16.862;2023-01-29T03:09:26;12.20;;;8.80;;
6547;SDS011;3307;52.416;16.862;2023-01-29T03:11:53;10.75;;;8.00;;
6547;SDS011;3307;52.416;16.862;2023-01-29T03:14:30;11.65;;;9.18;;
6547;SDS011;3307;52.416;16.862;2023-01-29T03:17:19;12.73;;;8.32;;
6547;SDS011;3307;52.416;16.862;2023-01-29T03:19:47;11.57;;;8.38;;
6547;SDS011;3307;52.416;16.862;2023-01-29T03:22:13;10.60;;;8.00;;
6547;SDS011;3307;52.416;16.862;2023-01-29T03:24:42;9.50;;;7.38;;
6547;SDS011;3307;52.416;16.862;2023-01-29T03:28:04;10.98;;;7.60;;
6547;SDS011;3307;52.416;16.862;2023-01-29T03:30:52;9.15;;;7.72;;
6547;SDS011;3307;52.416;16.862;2023-01-29T03:33:43;11.18;;;8.30;;
6547;SDS011;3307;52.416;16.862;2023-01-29T03:36:20;12.85;;;9.10;;
6547;SDS011;3307;52.416;16.862;2023-01-29T03:39:10;11.25;;;8.80;;
6547;SDS011;3307;52.416;16.862;2023-01-29T03:41:59;10.50;;;7.78;;
6547;SDS011;3307;52.416;16.862;2023-01-29T03:47:11;11.07;;;7.78;;
6547;SDS011;3307;52.416;16.862;2023-01-29T03:52:30;8.82;;;7.18;;
6547;SDS011;3307;52.416;16.862;2023-01-29T03:57:55;13.88;;;8.52;;
6547;SDS011;3307;52.416;16.862;2023-01-29T04:00:43;8.93;;;7.88;;
6547;SDS011;3307;52.416;16.862;2023-01-29T04:03:16;11.48;;;8.30;;
6547;SDS011;3307;52.416;16.862;2023-01-29T04:05:50;11.20;;;8.90;;
6547;SDS011;3307;52.416;16.862;2023-01-29T04:08:24;10.40;;;7.88;;
6547;SDS011;3307;52.416;16.862;2023-01-29T04:10:51;9.25;;;7.53;;
6547;SDS011;3307;52.416;16.862;2023-01-29T04:13:19;12.13;;;8.55;;
6547;SDS011;3307;52.416;16.862;2023-01-29T04:15:46;9.87;;;7.70;;
6547;SDS011;3307;52.416;16.862;2023-01-29T04:18:14;11.90;;;7.95;;
6547;SDS011;3307;52.416;16.862;2023-01-29T04:20:40;10.07;;;7.27;;
6547;SDS011;3307;52.416;16.862;2023-01-29T04:23:06;10.80;;;7.53;;
6547;SDS011;3307;52.416;16.862;2023-01-29T04:25:37;10.80;;;8.20;;
6547;SDS011;3307;52.416;16.862;2023-01-29T04:30:53;16.58;;;9.02;;
6547;SDS011;3307;52.416;16.862;2023-01-29T04:36:18;12.95;;;8.65;;
6547;SDS011;3307;52.416;16.862;2023-01-29T04:41:24;10.60;;;7.68;;
6547;SDS011;3307;52.416;16.862;2023-01-29T04:43:56;11.48;;;8.15;;
6547;SDS011;3307;52.416;16.862;2023-01-29T04:46:26;14.07;;;8.95;;
6547;SDS011;3307;52.416;16.862;2023-01-29T04:51:43;11.55;;;7.72;;
6547;SDS011;3307;52.416;16.862;2023-01-29T04:54:29;10.45;;;7.75;;
6547;SDS011;3307;52.416;16.862;2023-01-29T04:59:30;11.20;;;8.77;;
6547;SDS011;3307;52.416;16.862;2023-01-29T05:01:59;9.30;;;8.30;;
6547;SDS011;3307;52.416;16.862;2023-01-29T05:04:26;10.23;;;8.68;;
6547;SDS011;3307;52.416;16.862;2023-01-29T05:06:53;8.68;;;7.60;;
6547;SDS011;3307;52.416;16.862;2023-01-29T05:09:19;11.87;;;8.00;;
6547;SDS011;3307;52.416;16.862;2023-01-29T05:11:45;14.57;;;8.00;;
6547;SDS011;3307;52.416;16.862;2023-01-29T05:14:12;12.23;;;7.57;;
6547;SDS011;3307;52.416;16.862;2023-01-29T05:16:42;10.02;;;7.13;;
6547;SDS011;3307;52.416;16.862;2023-01-29T05:19:10;12.00;;;7.70;;
6547;SDS011;3307;52.416;16.862;2023-01-29T05:21:37;11.90;;;8.07;;
6547;SDS011;3307;52.416;16.862;2023-01-29T05:24:13;12.38;;;8.05;;
6547;SDS011;3307;52.416;16.862;2023-01-29T05:26:50;9.80;;;7.30;;
6547;SDS011;3307;52.416;16.862;2023-01-29T05:29:34;13.00;;;8.50;;
6547;SDS011;3307;52.416;16.862;2023-01-29T05:32:00;11.07;;;8.60;;
6547;SDS011;3307;52.416;16.862;2023-01-29T05:34:25;11.47;;;8.30;;
6547;SDS011;3307;52.416;16.862;2023-01-29T05:36:51;12.00;;;7.90;;
6547;SDS011;3307;52.416;16.862;2023-01-29T05:39:16;12.33;;;8.73;;
6547;SDS011;3307;52.416;16.862;2023-01-29T05:41:42;10.40;;;8.20;;
6547;SDS011;3307;52.416;16.862;2023-01-29T05:44:10;11.13;;;8.17;;
6547;SDS011;3307;52.416;16.862;2023-01-29T05:46:36;11.07;;;8.40;;
6547;SDS011;3307;52.416;16.862;2023-01-29T05:49:02;9.10;;;7.33;;
6547;SDS011;3307;52.416;16.862;2023-01-29T05:51:28;13.75;;;8.43;;
6547;SDS011;3307;52.416;16.862;2023-01-29T05:53:53;9.50;;;7.37;;
6547;SDS011;3307;52.416;16.862;2023-01-29T05:56:19;13.80;;;8.50;;
6547;SDS011;3307;52.416;16.862;2023-01-29T05:58:44;10.70;;;7.93;;
6547;SDS011;3307;52.416;16.862;2023-01-29T06:01:20;12.73;;;7.80;;
6547;SDS011;3307;52.416;16.862;2023-01-29T06:03:46;13.32;;;8.82;;
6547;SDS011;3307;52.416;16.862;2023-01-29T06:06:12;11.90;;;8.67;;
6547;SDS011;3307;52.416;16.862;2023-01-29T06:08:37;11.80;;;8.87;;
6547;SDS011;3307;52.416;16.862;2023-01-29T06:11:05;20.00;;;13.67;;
6547;SDS011;3307;52.416;16.862;2023-01-29T06:13:31;19.80;;;14.65;;
6547;SDS011;3307;52.416;16.862;2023-01-29T06:15:56;22.00;;;15.17;;
6547;SDS011;3307;52.416;16.862;2023-01-29T06:18:22;20.87;;;14.63;;
6547;SDS011;3307;52.416;16.862;2023-01-29T06:20:47;21.07;;;14.60;;
6547;SDS011;3307;52.416;16.862;2023-01-29T06:23:13;28.83;;;19.47;;
6547;SDS011;3307;52.416;16.862;2023-01-29T06:25:38;27.03;;;17.63;;
6547;SDS011;3307;52.416;16.862;2023-01-29T06:28:03;25.70;;;17.30;;
6547;SDS011;3307;52.416;16.862;2023-01-29T06:30:29;21.93;;;15.13;;
6547;SDS011;3307;52.416;16.862;2023-01-29T06:32:56;21.20;;;16.50;;
6547;SDS011;3307;52.416;16.862;2023-01-29T06:35:26;25.88;;;13.50;;
6547;SDS011;3307;52.416;16.862;2023-01-29T06:37:51;19.37;;;13.10;;
6547;SDS011;3307;52.416;16.862;2023-01-29T06:40:17;27.50;;;19.53;;
6547;SDS011;3307;52.416;16.862;2023-01-29T06:42:43;29.03;;;19.97;;
6547;SDS011;3307;52.416;16.862;2023-01-29T06:45:08;41.07;;;25.20;;
6547;SDS011;3307;52.416;16.862;2023-01-29T06:47:34;37.95;;;23.58;;
6547;SDS011;3307;52.416;16.862;2023-01-29T06:49:59;23.00;;;15.60;;
6547;SDS011;3307;52.416;16.862;2023-01-29T06:52:25;29.60;;;19.17;;
6547;SDS011;3307;52.416;16.862;2023-01-29T06:54:53;31.92;;;19.55;;
6547;SDS011;3307;52.416;16.862;2023-01-29T06:57:21;24.95;;;18.25;;
6547;SDS011;3307;52.416;16.862;2023-01-29T06:59:46;27.53;;;18.00;;
6547;SDS011;3307;52.416;16.862;2023-01-29T07:02:12;21.13;;;16.90;;
6547;SDS011;3307;52.416;16.862;2023-01-29T07:04:37;19.53;;;14.70;;
6547;SDS011;3307;52.416;16.862;2023-01-29T07:07:03;19.53;;;14.10;;
6547;SDS011;3307;52.416;16.862;2023-01-29T07:09:29;25.43;;;15.80;;
6547;SDS011;3307;52.416;16.862;2023-01-29T07:11:54;21.43;;;16.87;;
6547;SDS011;3307;52.416;16.862;2023-01-29T07:14:19;18.97;;;14.87;;
6547;SDS011;3307;52.416;16.862;2023-01-29T07:16:45;19.37;;;15.60;;
6547;SDS011;3307;52.416;16.862;2023-01-29T07:19:10;22.83;;;16.13;;
6547;SDS011;3307;52.416;16.862;2023-01-29T07:21:36;19.27;;;15.00;;
6547;SDS011;3307;52.416;16.862;2023-01-29T07:24:01;23.20;;;14.90;;
6547;SDS011;3307;52.416;16.862;2023-01-29T07:26:27;18.93;;;14.27;;
6547;SDS011;3307;52.416;16.862;2023-01-29T07:28:52;22.87;;;14.13;;
6547;SDS011;3307;52.416;16.862;2023-01-29T07:31:18;19.20;;;14.40;;
6547;SDS011;3307;52.416;16.862;2023-01-29T07:33:44;23.10;;;15.43;;
6547;SDS011;3307;52.416;16.862;2023-01-29T07:36:10;27.23;;;16.10;;
6547;SDS011;3307;52.416;16.862;2023-01-29T07:38:36;20.60;;;15.48;;
6547;SDS011;3307;52.416;16.862;2023-01-29T07:41:01;23.60;;;16.40;;
6547;SDS011;3307;52.416;16.862;2023-01-29T07:43:27;23.20;;;17.43;;
6547;SDS011;3307;52.416;16.862;2023-01-29T07:45:52;23.50;;;15.80;;
6547;SDS011;3307;52.416;16.862;2023-01-29T07:48:18;26.17;;;17.00;;
6547;SDS011;3307;52.416;16.862;2023-01-29T07:50:43;23.60;;;17.07;;
6547;SDS011;3307;52.416;16.862;2023-01-29T07:53:12;24.00;;;15.70;;
6547;SDS011;3307;52.416;16.862;2023-01-29T07:55:39;29.67;;;20.05;;
6547;SDS011;3307;52.416;16.862;2023-01-29T07:58:05;25.48;;;17.83;;
6547;SDS011;3307;52.416;16.862;2023-01-29T08:00:30;22.40;;;15.63;;
6547;SDS011;3307;52.416;16.862;2023-01-29T08:03:06;23.70;;;16.90;;
6547;SDS011;3307;52.416;16.862;2023-01-29T08:05:37;28.73;;;16.10;;
6547;SDS011;3307;52.416;16.862;2023-01-29T08:08:03;20.10;;;14.33;;
6547;SDS011;3307;52.416;16.862;2023-01-29T08:10:28;20.33;;;13.77;;
6547;SDS011;3307;52.416;16.862;2023-01-29T08:12:58;20.27;;;13.77;;
6547;SDS011;3307;52.416;16.862;2023-01-29T08:15:24;21.58;;;13.65;;
6547;SDS011;3307;52.416;16.862;2023-01-29T08:17:50;34.37;;;15.07;;
6547;SDS011;3307;52.416;16.862;2023-01-29T08:20:16;21.05;;;14.80;;
6547;SDS011;3307;52.416;16.862;2023-01-29T08:22:41;18.83;;;14.70;;
6547;SDS011;3307;52.416;16.862;2023-01-29T08:25:07;16.13;;;13.00;;
6547;SDS011;3307;52.416;16.862;2023-01-29T08:27:32;18.80;;;13.90;;
6547;SDS011;3307;52.416;16.862;2023-01-29T08:29:58;18.33;;;13.60;;
6547;SDS011;3307;52.416;16.862;2023-01-29T08:32:23;18.40;;;13.63;;
6547;SDS011;3307;52.416;16.862;2023-01-29T08:34:49;16.57;;;13.07;;
6547;SDS011;3307;52.416;16.862;2023-01-29T08:37:14;14.77;;;11.40;;
6547;SDS011;3307;52.416;16.862;2023-01-29T08:39:39;21.87;;;14.23;;
6547;SDS011;3307;52.416;16.862;2023-01-29T08:42:05;18.20;;;14.60;;
6547;SDS011;3307;52.416;16.862;2023-01-29T08:44:30;20.43;;;14.57;;
6547;SDS011;3307;52.416;16.862;2023-01-29T08:46:55;21.70;;;17.07;;
6547;SDS011;3307;52.416;16.862;2023-01-29T08:49:21;19.37;;;15.10;;
6547;SDS011;3307;52.416;16.862;2023-01-29T08:51:46;22.37;;;14.90;;
6547;SDS011;3307;52.416;16.862;2023-01-29T08:54:12;18.10;;;14.33;;
6547;SDS011;3307;52.416;16.862;2023-01-29T08:56:37;20.40;;;14.30;;
6547;SDS011;3307;52.416;16.862;2023-01-29T08:59:03;17.17;;;14.27;;
6547;SDS011;3307;52.416;16.862;2023-01-29T09:01:28;21.80;;;14.60;;
6547;SDS011;3307;52.416;16.862;2023-01-29T09:03:54;21.10;;;16.00;;
6547;SDS011;3307;52.416;16.862;2023-01-29T09:06:19;23.47;;;15.30;;
6547;SDS011;3307;52.416;16.862;2023-01-29T09:08:45;19.23;;;13.97;;
6547;SDS011;3307;52.416;16.862;2023-01-29T09:11:10;21.30;;;16.37;;
6547;SDS011;3307;52.416;16.862;2023-01-29T09:13:36;22.43;;;15.53;;
6547;SDS011;3307;52.416;16.862;2023-01-29T09:16:02;20.70;;;16.93;;
6547;SDS011;3307;52.416;16.862;2023-01-29T09:18:28;20.15;;;15.90;;
6547;SDS011;3307;52.416;16.862;2023-01-29T09:20:54;20.48;;;15.55;;
6547;SDS011;3307;52.416;16.862;2023-01-29T09:23:19;22.10;;;15.77;;
6547;SDS011;3307;52.416;16.862;2023-01-29T09:25:45;20.70;;;16.90;;
6547;SDS011;3307;52.416;16.862;2023-01-29T09:28:11;21.37;;;14.90;;
6547;SDS011;3307;52.416;16.862;2023-01-29T09:30:36;24.73;;;17.50;;
6547;SDS011;3307;52.416;16.862;2023-01-29T09:33:02;21.83;;;16.43;;
6547;SDS011;3307;52.416;16.862;2023-01-29T09:35:29;25.20;;;17.15;;
6547;SDS011;3307;52.416;16.862;2023-01-29T09:37:54;22.83;;;15.67;;
6547;SDS011;3307;52.416;16.862;2023-01-29T09:40:25;23.15;;;17.35;;
6547;SDS011;3307;52.416;16.862;2023-01-29T09:43:05;25.33;;;16.67;;
6547;SDS011;3307;52.416;16.862;2023-01-29T09:45:31;24.67;;;17.23;;
6547;SDS011;3307;52.416;16.862;2023-01-29T09:47:58;23.67;;;17.97;;
6547;SDS011;3307;52.416;16.862;2023-01-29T09:50:36;25.55;;;18.77;;
6547;SDS011;3307;52.416;16.862;2023-01-29T09:53:08;24.55;;;18.38;;
6547;SDS011;3307;52.416;16.862;2023-01-29T09:55:45;23.33;;;17.42;;
6547;SDS011;3307;52.416;16.862;2023-01-29T09:58:34;24.27;;;18.30;;
6547;SDS011;3307;52.416;16.862;2023-01-29T10:01:14;21.80;;;15.82;;
6547;SDS011;3307;52.416;16.862;2023-01-29T10:08:54;20.98;;;15.70;;
6547;SDS011;3307;52.416;16.862;2023-01-29T10:12:05;21.92;;;15.05;;
6547;SDS011;3307;52.416;16.862;2023-01-29T10:25:06;25.75;;;20.45;;
6547;SDS011;3307;52.416;16.862;2023-01-29T10:27:36;24.17;;;17.27;;
6547;SDS011;3307;52.416;16.862;2023-01-29T10:32:58;24.40;;;18.05;;
6547;SDS011;3307;52.416;16.862;2023-01-29T10:36:01;21.67;;;15.63;;
6547;SDS011;3307;52.416;16.862;2023-01-29T10:43:42;26.67;;;16.67;;
6547;SDS011;3307;52.416;16.862;2023-01-29T10:56:46;21.27;;;17.05;;
6547;SDS011;3307;52.416;16.862;2023-01-29T10:59:30;22.63;;;18.67;;
6547;SDS011;3307;52.416;16.862;2023-01-29T11:01:58;19.20;;;15.00;;
6547;SDS011;3307;52.416;16.862;2023-01-29T11:04:24;21.42;;;16.52;;
6547;SDS011;3307;52.416;16.862;2023-01-29T11:06:50;22.00;;;15.48;;
6547;SDS011;3307;52.416;16.862;2023-01-29T11:09:33;22.00;;;16.30;;
6547;SDS011;3307;52.416;16.862;2023-01-29T11:12:05;19.13;;;15.60;;
6547;SDS011;3307;52.416;16.862;2023-01-29T11:14:43;22.42;;;17.10;;
6547;SDS011;3307;52.416;16.862;2023-01-29T11:17:22;25.15;;;18.27;;
6547;SDS011;3307;52.416;16.862;2023-01-29T11:19:49;19.75;;;14.48;;
6547;SDS011;3307;52.416;16.862;2023-01-29T11:22:17;18.35;;;15.90;;
6547;SDS011;3307;52.416;16.862;2023-01-29T11:25:06;23.65;;;16.92;;
6547;SDS011;3307;52.416;16.862;2023-01-29T11:27:42;20.40;;;15.77;;
6547;SDS011;3307;52.416;16.862;2023-01-29T11:30:16;23.58;;;15.85;;
6547;SDS011;3307;52.416;16.862;2023-01-29T11:32:49;25.48;;;17.17;;
6547;SDS011;3307;52.416;16.862;2023-01-29T11:37:42;20.57;;;15.77;;
6547;SDS011;3307;52.416;16.862;2023-01-29T11:42:46;28.08;;;17.60;;
6547;SDS011;3307;52.416;16.862;2023-01-29T11:45:33;22.08;;;17.15;;
6547;SDS011;3307;52.416;16.862;2023-01-29T11:47:58;23.90;;;17.85;;
6547;SDS011;3307;52.416;16.862;2023-01-29T11:50:25;31.83;;;19.53;;
6547;SDS011;3307;52.416;16.862;2023-01-29T11:52:52;24.23;;;17.05;;
6547;SDS011;3307;52.416;16.862;2023-01-29T11:55:19;26.73;;;19.20;;
6547;SDS011;3307;52.416;16.862;2023-01-29T11:57:55;26.45;;;19.20;;
6547;SDS011;3307;52.416;16.862;2023-01-29T12:00:26;24.63;;;17.90;;
6547;SDS011;3307;52.416;16.862;2023-01-29T12:02:58;23.45;;;18.08;;
6547;SDS011;3307;52.416;16.862;2023-01-29T12:05:27;26.75;;;19.05;;
6547;SDS011;3307;52.416;16.862;2023-01-29T12:07:53;23.80;;;19.47;;
6547;SDS011;3307;52.416;16.862;2023-01-29T12:10:40;35.13;;;21.70;;
6547;SDS011;3307;52.416;16.862;2023-01-29T12:13:14;29.95;;;19.73;;
6547;SDS011;3307;52.416;16.862;2023-01-29T12:15:46;29.38;;;21.27;;
6547;SDS011;3307;52.416;16.862;2023-01-29T12:18:20;28.75;;;18.85;;
6547;SDS011;3307;52.416;16.862;2023-01-29T12:20:54;23.40;;;18.23;;
6547;SDS011;3307;52.416;16.862;2023-01-29T12:26:20;25.15;;;20.15;;
6547;SDS011;3307;52.416;16.862;2023-01-29T12:28:53;30.65;;;19.33;;
6547;SDS011;3307;52.416;16.862;2023-01-29T12:34:10;24.75;;;19.25;;
6547;SDS011;3307;52.416;16.862;2023-01-29T12:39:49;28.85;;;20.60;;
6547;SDS011;3307;52.416;16.862;2023-01-29T12:42:18;28.23;;;19.75;;
6547;SDS011;3307;52.416;16.862;2023-01-29T12:44:48;28.77;;;20.42;;
6547;SDS011;3307;52.416;16.862;2023-01-29T12:47:30;33.90;;;23.25;;
6547;SDS011;3307;52.416;16.862;2023-01-29T12:49:59;30.25;;;21.08;;
6547;SDS011;3307;52.416;16.862;2023-01-29T12:52:44;30.13;;;21.70;;
6547;SDS011;3307;52.416;16.862;2023-01-29T12:55:59;31.58;;;21.92;;
6547;SDS011;3307;52.416;16.862;2023-01-29T12:58:21;28.42;;;23.65;;
6547;SDS011;3307;52.416;16.862;2023-01-29T13:00:50;28.65;;;21.98;;
6547;SDS011;3307;52.416;16.862;2023-01-29T13:03:22;31.80;;;24.35;;
6547;SDS011;3307;52.416;16.862;2023-01-29T13:11:14;27.08;;;21.05;;
6547;SDS011;3307;52.416;16.862;2023-01-29T13:13:46;28.33;;;19.98;;
6547;SDS011;3307;52.416;16.862;2023-01-29T13:16:17;25.90;;;19.52;;
6547;SDS011;3307;52.416;16.862;2023-01-29T13:18:52;29.65;;;21.95;;
6547;SDS011;3307;52.416;16.862;2023-01-29T13:21:21;31.27;;;22.33;;
6547;SDS011;3307;52.416;16.862;2023-01-29T13:23:50;28.27;;;20.38;;
6547;SDS011;3307;52.416;16.862;2023-01-29T13:26:18;33.60;;;22.27;;
6547;SDS011;3307;52.416;16.862;2023-01-29T13:28:44;34.20;;;23.88;;
6547;SDS011;3307;52.416;16.862;2023-01-29T13:31:25;28.27;;;21.17;;
6547;SDS011;3307;52.416;16.862;2023-01-29T13:36:51;27.60;;;19.98;;
6547;SDS011;3307;52.416;16.862;2023-01-29T13:41:44;36.40;;;22.80;;
6547;SDS011;3307;52.416;16.862;2023-01-29T13:44:20;33.77;;;24.17;;
6547;SDS011;3307;52.416;16.862;2023-01-29T13:46:55;31.17;;;23.05;;
6547;SDS011;3307;52.416;16.862;2023-01-29T13:49:27;31.45;;;22.58;;
6547;SDS011;3307;52.416;16.862;2023-01-29T13:51:53;28.05;;;21.65;;
6547;SDS011;3307;52.416;16.862;2023-01-29T13:54:20;31.13;;;20.77;;
6547;SDS011;3307;52.416;16.862;2023-01-29T13:56:58;31.05;;;22.67;;
6547;SDS011;3307;52.416;16.862;2023-01-29T14:02:20;29.05;;;21.02;;
6547;SDS011;3307;52.416;16.862;2023-01-29T14:10:40;25.92;;;19.85;;
6547;SDS011;3307;52.416;16.862;2023-01-29T14:16:32;26.52;;;22.02;;
6547;SDS011;3307;52.416;16.862;2023-01-29T14:18:33;35.03;;;21.60;;
6547;SDS011;3307;52.416;16.862;2023-01-29T14:21:01;52.13;;;33.75;;
6547;SDS011;3307;52.416;16.862;2023-01-29T14:23:35;33.80;;;24.10;;
6547;SDS011;3307;52.416;16.862;2023-01-29T14:26:16;28.95;;;21.67;;
6547;SDS011;3307;52.416;16.862;2023-01-29T14:28:43;33.72;;;24.80;;
6547;SDS011;3307;52.416;16.862;2023-01-29T14:34:05;31.88;;;21.60;;
6547;SDS011;3307;52.416;16.862;2023-01-29T14:36:38;31.25;;;23.92;;
6547;SDS011;3307;52.416;16.862;2023-01-29T14:39:04;32.65;;;22.95;;
6547;SDS011;3307;52.416;16.862;2023-01-29T14:41:31;32.67;;;22.17;;
6547;SDS011;3307;52.416;16.862;2023-01-29T14:47:00;31.33;;;21.92;;
6547;SDS011;3307;52.416;16.862;2023-01-29T14:52:13;33.95;;;22.02;;
6547;SDS011;3307;52.416;16.862;2023-01-29T14:54:39;32.53;;;23.37;;
6547;SDS011;3307;52.416;16.862;2023-01-29T14:57:04;33.97;;;21.70;;
6547;SDS011;3307;52.416;16.862;2023-01-29T14:59:55;31.33;;;21.52;;
6547;SDS011;3307;52.416;16.862;2023-01-29T15:05:10;28.65;;;20.17;;
6547;SDS011;3307;52.416;16.862;2023-01-29T15:07:50;30.38;;;22.15;;
6547;SDS011;3307;52.416;16.862;2023-01-29T15:10:41;36.20;;;23.65;;
6547;SDS011;3307;52.416;16.862;2023-01-29T15:13:18;34.00;;;22.30;;
6547;SDS011;3307;52.416;16.862;2023-01-29T15:16:19;33.92;;;24.25;;
6547;SDS011;3307;52.416;16.862;2023-01-29T15:18:50;33.20;;;23.45;;
6547;SDS011;3307;52.416;16.862;2023-01-29T15:21:19;34.47;;;22.60;;
6547;SDS011;3307;52.416;16.862;2023-01-29T15:23:45;33.87;;;22.53;;
6547;SDS011;3307;52.416;16.862;2023-01-29T15:28:43;30.80;;;22.92;;
6547;SDS011;3307;52.416;16.862;2023-01-29T15:31:13;38.38;;;23.40;;
6547;SDS011;3307;52.416;16.862;2023-01-29T15:33:41;33.83;;;23.08;;
6547;SDS011;3307;52.416;16.862;2023-01-29T15:36:14;35.05;;;24.40;;
6547;SDS011;3307;52.416;16.862;2023-01-29T15:38:43;35.15;;;23.27;;
6547;SDS011;3307;52.416;16.862;2023-01-29T15:41:18;31.17;;;22.50;;
6547;SDS011;3307;52.416;16.862;2023-01-29T15:43:45;31.23;;;21.48;;
6547;SDS011;3307;52.416;16.862;2023-01-29T15:48:44;30.30;;;21.15;;
6547;SDS011;3307;52.416;16.862;2023-01-29T15:51:16;28.02;;;21.42;;
6547;SDS011;3307;52.416;16.862;2023-01-29T15:53:48;34.03;;;22.85;;
6547;SDS011;3307;52.416;16.862;2023-01-29T15:56:17;29.35;;;20.15;;
6547;SDS011;3307;52.416;16.862;2023-01-29T15:58:48;29.85;;;21.15;;
6547;SDS011;3307;52.416;16.862;2023-01-29T16:01:15;30.13;;;23.38;;
6547;SDS011;3307;52.416;16.862;2023-01-29T16:03:40;31.77;;;20.93;;
6547;SDS011;3307;52.416;16.862;2023-01-29T16:06:06;29.03;;;22.20;;
6547;SDS011;3307;52.416;16.862;2023-01-29T16:08:32;31.63;;;22.50;;
6547;SDS011;3307;52.416;16.862;2023-01-29T16:11:00;34.42;;;24.10;;
6547;SDS011;3307;52.416;16.862;2023-01-29T16:13:28;32.50;;;23.60;;
6547;SDS011;3307;52.416;16.862;2023-01-29T16:15:58;36.58;;;23.30;;
6547;SDS011;3307;52.416;16.862;2023-01-29T16:20:59;33.92;;;21.33;;
6547;SDS011;3307;52.416;16.862;2023-01-29T16:23:27;31.05;;;19.92;;
6547;SDS011;3307;52.416;16.862;2023-01-29T16:25:55;29.38;;;21.85;;
6547;SDS011;3307;52.416;16.862;2023-01-29T16:28:26;29.93;;;21.07;;
6547;SDS011;3307;52.416;16.862;2023-01-29T16:30:55;32.13;;;21.03;;
6547;SDS011;3307;52.416;16.862;2023-01-29T16:33:22;32.00;;;21.95;;
6547;SDS011;3307;52.416;16.862;2023-01-29T16:35:57;35.78;;;23.15;;
6547;SDS011;3307;52.416;16.862;2023-01-29T16:38:27;35.20;;;24.43;;
6547;SDS011;3307;52.416;16.862;2023-01-29T16:41:12;35.45;;;23.80;;
6547;SDS011;3307;52.416;16.862;2023-01-29T16:43:44;37.70;;;26.50;;
6547;SDS011;3307;52.416;16.862;2023-01-29T16:46:16;32.65;;;21.92;;
6547;SDS011;3307;52.416;16.862;2023-01-29T16:48:44;31.77;;;22.55;;
6547;SDS011;3307;52.416;16.862;2023-01-29T16:51:12;28.92;;;21.90;;
6547;SDS011;3307;52.416;16.862;2023-01-29T16:53:53;35.35;;;23.67;;
6547;SDS011;3307;52.416;16.862;2023-01-29T16:56:43;35.17;;;24.35;;
6547;SDS011;3307;52.416;16.862;2023-01-29T16:59:10;34.55;;;24.77;;
6547;SDS011;3307;52.416;16.862;2023-01-29T17:01:41;33.10;;;24.52;;
6547;SDS011;3307;52.416;16.862;2023-01-29T17:04:09;33.47;;;24.77;;
6547;SDS011;3307;52.416;16.862;2023-01-29T17:06:38;31.35;;;23.80;;
6547;SDS011;3307;52.416;16.862;2023-01-29T17:09:06;35.22;;;23.48;;
6547;SDS011;3307;52.416;16.862;2023-01-29T17:11:36;33.00;;;24.70;;